createdAt,value
2017-12-20T00:01:25.582Z,1035.83
2017-12-20T00:02:52.931Z,1035.78
2017-12-20T00:04:20.197Z,1035.77
2017-12-20T00:05:47.419Z,1035.77
2017-12-20T00:07:14.549Z,1035.77
2017-12-20T00:08:41.841Z,1035.77
2017-12-20T00:10:08.803Z,1035.76
2017-12-20T00:11:36.013Z,1035.76
2017-12-20T00:13:03.380Z,1035.77
2017-12-20T00:14:30.707Z,1035.79
2017-12-20T00:15:57.810Z,1035.81
2017-12-20T00:17:24.891Z,1035.82
2017-12-20T00:18:52.195Z,1035.82
2017-12-20T00:20:19.299Z,1035.81
2017-12-20T00:21:46.563Z,1035.84
2017-12-20T00:23:13.686Z,1035.86
2017-12-20T00:24:40.826Z,1035.84
2017-12-20T00:26:07.699Z,1035.82
2017-12-20T00:27:34.821Z,1035.81
2017-12-20T00:29:02.032Z,1035.77
2017-12-20T00:30:29.275Z,1035.78
2017-12-20T00:31:56.529Z,1035.77
2017-12-20T00:33:23.734Z,1035.74
2017-12-20T00:34:50.858Z,1035.73
2017-12-20T00:36:18.131Z,1035.68
2017-12-20T00:37:45.388Z,1035.67
2017-12-20T00:39:12.728Z,1035.66
2017-12-20T00:40:39.970Z,1035.64
2017-12-20T00:42:07.022Z,1035.64
2017-12-20T00:43:34.324Z,1035.67
2017-12-20T00:45:01.609Z,1035.66
2017-12-20T00:46:28.726Z,1035.65
2017-12-20T00:47:55.881Z,1035.64
2017-12-20T00:49:23.116Z,1035.66
2017-12-20T00:50:50.557Z,1035.65
2017-12-20T00:52:17.781Z,1035.63
2017-12-20T00:53:44.845Z,1035.61
2017-12-20T00:55:12.106Z,1035.59
2017-12-20T00:56:39.111Z,1035.56
2017-12-20T00:58:06.382Z,1035.56
2017-12-20T00:59:33.652Z,1035.52
2017-12-20T01:01:00.638Z,1035.51
2017-12-20T01:02:27.850Z,1035.54
2017-12-20T01:03:55.103Z,1035.52
2017-12-20T01:05:22.322Z,1035.49
2017-12-20T01:06:49.496Z,1035.48
2017-12-20T01:08:16.812Z,1035.46
2017-12-20T01:09:43.855Z,1035.48
2017-12-20T01:11:11.030Z,1035.45
2017-12-20T01:12:38.144Z,1035.46
2017-12-20T01:14:05.408Z,1035.47
2017-12-20T01:15:32.626Z,1035.47
2017-12-20T01:16:59.926Z,1035.48
2017-12-20T01:18:27.271Z,1035.47
2017-12-20T01:19:54.494Z,1035.43
2017-12-20T01:21:21.732Z,1035.45
2017-12-20T01:22:49.164Z,1035.47
2017-12-20T01:24:16.005Z,1035.51
2017-12-20T01:25:43.191Z,1035.50
2017-12-20T01:27:10.366Z,1035.50
2017-12-20T01:28:37.452Z,1035.51
2017-12-20T01:30:04.816Z,1035.52
2017-12-20T01:31:32.064Z,1035.52
2017-12-20T01:32:59.357Z,1035.50
2017-12-20T01:34:26.556Z,1035.50
2017-12-20T01:35:53.926Z,1035.51
2017-12-20T01:37:21.185Z,1035.50
2017-12-20T01:38:48.552Z,1035.48
2017-12-20T01:40:15.872Z,1035.53
2017-12-20T01:41:43.040Z,1035.53
2017-12-20T01:43:10.333Z,1035.54
2017-12-20T01:44:37.481Z,1035.50
2017-12-20T01:46:05.834Z,1035.49
2017-12-20T01:47:32.056Z,1035.51
2017-12-20T01:48:59.432Z,1035.55
2017-12-20T01:50:26.574Z,1035.56
2017-12-20T01:51:53.738Z,1035.55
2017-12-20T01:53:21.079Z,1035.54
2017-12-20T01:54:48.533Z,1035.49
2017-12-20T01:56:15.864Z,1035.47
2017-12-20T01:57:43.013Z,1035.50
2017-12-20T01:59:10.032Z,1035.52
2017-12-20T02:00:37.113Z,1035.54
2017-12-20T02:02:04.509Z,1035.55
2017-12-20T02:03:31.894Z,1035.53
2017-12-20T02:04:58.862Z,1035.48
2017-12-20T02:06:26.089Z,1035.48
2017-12-20T02:07:53.532Z,1035.48
2017-12-20T02:09:20.694Z,1035.50
2017-12-20T02:10:47.744Z,1035.46
2017-12-20T02:12:14.992Z,1035.43
2017-12-20T02:13:42.340Z,1035.40
2017-12-20T02:15:09.543Z,1035.42
2017-12-20T02:16:36.955Z,1035.41
2017-12-20T02:18:04.043Z,1035.42
2017-12-20T02:19:31.229Z,1035.41
2017-12-20T02:20:58.615Z,1035.38
2017-12-20T02:22:25.744Z,1035.40
2017-12-20T02:23:52.957Z,1035.43
2017-12-20T02:25:20.312Z,1035.47
2017-12-20T02:26:47.521Z,1035.44
2017-12-20T02:28:14.526Z,1035.43
2017-12-20T02:29:42.008Z,1035.44
2017-12-20T02:31:09.004Z,1035.48
2017-12-20T02:34:03.492Z,1035.46
2017-12-20T02:35:30.719Z,1035.44
2017-12-20T02:36:58.038Z,1035.46
2017-12-20T02:38:25.309Z,1035.44
2017-12-20T02:39:52.600Z,1035.43
2017-12-20T02:41:19.835Z,1035.45
2017-12-20T02:42:47.067Z,1035.42
2017-12-20T02:44:14.239Z,1035.40
2017-12-20T02:45:41.366Z,1035.40
2017-12-20T02:47:08.611Z,1035.44
2017-12-20T02:48:35.902Z,1035.44
2017-12-20T02:50:03.109Z,1035.44
2017-12-20T02:51:30.355Z,1035.43
2017-12-20T02:52:57.438Z,1035.44
2017-12-20T02:54:24.655Z,1035.44
2017-12-20T02:55:51.675Z,1035.45
2017-12-20T02:57:18.900Z,1035.43
2017-12-20T02:58:46.115Z,1035.38
2017-12-20T03:00:13.400Z,1035.38
2017-12-20T03:01:40.747Z,1035.37
2017-12-20T03:03:07.722Z,1035.40
2017-12-20T03:04:35.127Z,1035.39
2017-12-20T03:06:02.479Z,1035.39
2017-12-20T03:07:29.579Z,1035.40
2017-12-20T03:08:56.964Z,1035.44
2017-12-20T03:10:24.315Z,1035.46
2017-12-20T03:11:51.422Z,1035.46
2017-12-20T03:13:18.743Z,1035.48
2017-12-20T03:14:45.856Z,1035.47
2017-12-20T03:16:13.277Z,1035.51
2017-12-20T03:17:40.227Z,1035.49
2017-12-20T03:19:07.571Z,1035.49
2017-12-20T03:20:34.657Z,1035.50
2017-12-20T03:22:01.894Z,1035.53
2017-12-20T03:23:29.108Z,1035.55
2017-12-20T03:24:56.559Z,1035.55
2017-12-20T03:26:23.681Z,1035.55
2017-12-20T03:27:50.916Z,1035.58
2017-12-20T03:29:18.087Z,1035.56
2017-12-20T03:30:45.418Z,1035.61
2017-12-20T03:32:12.671Z,1035.59
2017-12-20T03:33:39.891Z,1035.59
2017-12-20T03:35:07.072Z,1035.57
2017-12-20T03:36:34.056Z,1035.55
2017-12-20T03:38:01.206Z,1035.49
2017-12-20T03:39:28.565Z,1035.46
2017-12-20T03:40:55.889Z,1035.45
2017-12-20T03:42:22.935Z,1035.40
2017-12-20T03:43:50.166Z,1035.39
2017-12-20T03:45:17.201Z,1035.39
2017-12-20T03:46:44.561Z,1035.41
2017-12-20T03:48:11.695Z,1035.49
2017-12-20T03:49:38.749Z,1035.47
2017-12-20T03:51:06.191Z,1035.47
2017-12-20T03:52:33.471Z,1035.46
2017-12-20T03:54:00.352Z,1035.43
2017-12-20T03:55:27.806Z,1035.41
2017-12-20T03:56:54.990Z,1035.44
2017-12-20T03:58:21.957Z,1035.42
2017-12-20T03:59:49.161Z,1035.43
2017-12-20T04:01:16.406Z,1035.44
2017-12-20T04:02:43.474Z,1035.43
2017-12-20T04:04:10.719Z,1035.41
2017-12-20T04:05:37.864Z,1035.37
2017-12-20T04:07:05.229Z,1035.34
2017-12-20T04:08:32.408Z,1035.35
2017-12-20T04:09:59.649Z,1035.37
2017-12-20T04:11:26.829Z,1035.39
2017-12-20T04:12:53.860Z,1035.42
2017-12-20T04:14:21.021Z,1035.45
2017-12-20T04:15:48.118Z,1035.47
2017-12-20T04:17:15.182Z,1035.52
2017-12-20T04:18:42.497Z,1035.51
2017-12-20T04:20:09.755Z,1035.51
2017-12-20T04:21:36.766Z,1035.55
2017-12-20T04:23:04.204Z,1035.59
2017-12-20T04:24:31.304Z,1035.55
2017-12-20T04:25:58.741Z,1035.54
2017-12-20T04:27:26.027Z,1035.54
2017-12-20T04:28:53.079Z,1035.49
2017-12-20T04:30:20.306Z,1035.48
2017-12-20T04:31:47.549Z,1035.47
2017-12-20T04:33:14.769Z,1035.47
2017-12-20T04:34:42.077Z,1035.50
2017-12-20T04:36:09.159Z,1035.46
2017-12-20T04:37:36.549Z,1035.46
2017-12-20T04:39:03.741Z,1035.46
2017-12-20T04:40:31.167Z,1035.41
2017-12-20T04:41:58.291Z,1035.36
2017-12-20T04:43:25.825Z,1035.36
2017-12-20T04:44:53.084Z,1035.35
2017-12-20T04:46:20.315Z,1035.34
2017-12-20T04:47:47.539Z,1035.36
2017-12-20T04:49:14.809Z,1035.35
2017-12-20T04:50:42.164Z,1035.33
2017-12-20T04:52:09.412Z,1035.34
2017-12-20T04:53:36.650Z,1035.35
2017-12-20T04:55:03.906Z,1035.34
2017-12-20T04:56:31.253Z,1035.33
2017-12-20T04:57:58.401Z,1035.32
2017-12-20T04:59:25.596Z,1035.30
2017-12-20T05:00:52.848Z,1035.26
2017-12-20T05:02:19.999Z,1035.24
2017-12-20T05:03:47.391Z,1035.25
2017-12-20T05:05:14.609Z,1035.23
2017-12-20T05:06:41.876Z,1035.24
2017-12-20T05:08:08.925Z,1035.22
2017-12-20T05:09:36.293Z,1035.18
2017-12-20T05:11:03.575Z,1035.23
2017-12-20T05:12:30.737Z,1035.27
2017-12-20T05:13:58.035Z,1035.29
2017-12-20T05:15:25.102Z,1035.33
2017-12-20T05:16:52.470Z,1035.36
2017-12-20T05:18:19.742Z,1035.37
2017-12-20T05:19:46.851Z,1035.39
2017-12-20T05:21:14.225Z,1035.41
2017-12-20T05:22:41.351Z,1035.39
2017-12-20T05:24:08.686Z,1035.41
2017-12-20T05:25:36.166Z,1035.41
2017-12-20T05:27:03.427Z,1035.41
2017-12-20T05:28:30.714Z,1035.41
2017-12-20T05:29:57.936Z,1035.40
2017-12-20T05:31:25.206Z,1035.39
2017-12-20T05:32:52.420Z,1035.40
2017-12-20T05:34:19.737Z,1035.41
2017-12-20T05:35:46.903Z,1035.39
2017-12-20T05:37:14.170Z,1035.38
2017-12-20T05:38:40.941Z,1035.36
2017-12-20T05:40:07.975Z,1035.33
2017-12-20T05:41:35.211Z,1035.33
2017-12-20T05:43:02.514Z,1035.33
2017-12-20T05:44:29.680Z,1035.33
2017-12-20T05:45:56.990Z,1035.35
2017-12-20T05:47:24.369Z,1035.36
2017-12-20T05:48:51.664Z,1035.41
2017-12-20T05:50:18.871Z,1035.42
2017-12-20T05:51:45.844Z,1035.41
2017-12-20T05:53:13.076Z,1035.40
2017-12-20T05:54:40.445Z,1035.41
2017-12-20T05:56:07.277Z,1035.43
2017-12-20T05:57:34.377Z,1035.48
2017-12-20T05:59:01.710Z,1035.48
2017-12-20T06:00:28.962Z,1035.51
2017-12-20T06:01:56.190Z,1035.53
2017-12-20T06:03:23.439Z,1035.51
2017-12-20T06:04:50.632Z,1035.52
2017-12-20T06:06:17.718Z,1035.54
2017-12-20T06:07:45.083Z,1035.55
2017-12-20T06:09:12.257Z,1035.54
2017-12-20T06:10:39.510Z,1035.56
2017-12-20T06:12:06.579Z,1035.60
2017-12-20T06:13:33.621Z,1035.67
2017-12-20T06:15:00.756Z,1035.73
2017-12-20T06:16:27.895Z,1035.75
2017-12-20T06:17:55.147Z,1035.76
2017-12-20T06:19:22.638Z,1035.75
2017-12-20T06:20:49.630Z,1035.79
2017-12-20T06:22:17.009Z,1035.78
2017-12-20T06:23:44.193Z,1035.75
2017-12-20T06:25:11.162Z,1035.77
2017-12-20T06:26:38.153Z,1035.75
2017-12-20T06:28:05.309Z,1035.79
2017-12-20T06:29:32.485Z,1035.80
2017-12-20T06:30:59.684Z,1035.76
2017-12-20T06:32:26.931Z,1035.73
2017-12-20T06:33:54.294Z,1035.77
2017-12-20T06:35:21.668Z,1035.77
2017-12-20T06:36:48.814Z,1035.82
2017-12-20T06:38:16.011Z,1035.83
2017-12-20T06:39:43.235Z,1035.82
2017-12-20T06:41:10.204Z,1035.80
2017-12-20T06:42:37.415Z,1035.78
2017-12-20T06:44:04.537Z,1035.78
2017-12-20T06:45:31.720Z,1035.77
2017-12-20T06:46:58.935Z,1035.75
2017-12-20T06:48:26.281Z,1035.75
2017-12-20T06:49:53.648Z,1035.76
2017-12-20T06:51:21.015Z,1035.79
2017-12-20T06:52:48.291Z,1035.81
2017-12-20T06:54:15.472Z,1035.82
2017-12-20T06:55:42.710Z,1035.84
2017-12-20T06:57:10.078Z,1035.84
2017-12-20T06:58:37.171Z,1035.84
2017-12-20T07:00:04.397Z,1035.86
2017-12-20T07:01:31.573Z,1035.84
2017-12-20T07:02:58.836Z,1035.83
2017-12-20T07:04:26.186Z,1035.82
2017-12-20T07:05:53.388Z,1035.82
2017-12-20T07:07:20.352Z,1035.81
2017-12-20T07:08:47.721Z,1035.84
2017-12-20T07:10:14.682Z,1035.86
2017-12-20T07:11:41.716Z,1035.92
2017-12-20T07:13:08.792Z,1035.93
2017-12-20T07:14:36.145Z,1035.95
2017-12-20T07:16:03.414Z,1035.97
2017-12-20T07:17:30.812Z,1035.96
2017-12-20T07:18:58.051Z,1035.96
2017-12-20T07:20:25.435Z,1035.96
2017-12-20T07:21:52.487Z,1035.97
2017-12-20T07:23:19.937Z,1035.95
2017-12-20T07:24:47.078Z,1035.96
2017-12-20T07:26:14.323Z,1035.98
2017-12-20T07:27:41.568Z,1035.99
2017-12-20T07:29:08.833Z,1035.99
2017-12-20T07:30:35.934Z,1035.99
2017-12-20T07:32:03.131Z,1035.98
2017-12-20T07:33:30.328Z,1036.02
2017-12-20T07:34:57.349Z,1036.06
2017-12-20T07:36:24.659Z,1036.09
2017-12-20T07:37:51.919Z,1036.11
2017-12-20T07:39:19.014Z,1036.15
2017-12-20T07:40:46.251Z,1036.14
2017-12-20T07:42:13.431Z,1036.15
2017-12-20T07:43:40.838Z,1036.15
2017-12-20T07:45:07.922Z,1036.15
2017-12-20T07:46:35.142Z,1036.12
2017-12-20T07:48:02.515Z,1036.13
2017-12-20T07:49:29.817Z,1036.17
2017-12-20T07:50:57.016Z,1036.18
2017-12-20T07:52:24.360Z,1036.23
2017-12-20T07:53:51.537Z,1036.24
2017-12-20T07:55:18.823Z,1036.24
2017-12-20T07:56:46.138Z,1036.24
2017-12-20T07:58:13.104Z,1036.21
2017-12-20T07:59:40.469Z,1036.21
2017-12-20T08:01:07.581Z,1036.17
2017-12-20T08:02:34.687Z,1036.15
2017-12-20T08:04:01.760Z,1036.15
2017-12-20T08:05:28.863Z,1036.13
2017-12-20T08:06:56.075Z,1036.15
2017-12-20T08:08:23.361Z,1036.13
2017-12-20T08:09:50.575Z,1036.09
2017-12-20T08:11:17.762Z,1036.09
2017-12-20T08:12:44.895Z,1036.10
2017-12-20T08:14:12.113Z,1036.12
2017-12-20T08:15:39.436Z,1036.12
2017-12-20T08:17:06.584Z,1036.14
2017-12-20T08:18:33.957Z,1036.16
2017-12-20T08:20:01.079Z,1036.17
2017-12-20T08:21:28.416Z,1036.18
2017-12-20T08:22:55.574Z,1036.18
2017-12-20T08:24:22.950Z,1036.19
2017-12-20T08:25:50.121Z,1036.18
2017-12-20T08:27:17.227Z,1036.19
2017-12-20T08:28:44.451Z,1036.20
2017-12-20T08:30:11.721Z,1036.19
2017-12-20T08:31:38.837Z,1036.22
2017-12-20T08:33:06.215Z,1036.23
2017-12-20T08:34:33.580Z,1036.23
2017-12-20T08:36:00.908Z,1036.23
2017-12-20T08:37:28.225Z,1036.24
2017-12-20T08:38:55.615Z,1036.23
2017-12-20T08:40:22.973Z,1036.24
2017-12-20T08:41:50.259Z,1036.21
2017-12-20T08:43:17.391Z,1036.18
2017-12-20T08:44:44.630Z,1036.18
2017-12-20T08:46:11.916Z,1036.17
2017-12-20T08:47:39.101Z,1036.15
2017-12-20T08:49:06.437Z,1036.16
2017-12-20T08:50:33.771Z,1036.15
2017-12-20T08:52:00.827Z,1036.13
2017-12-20T08:53:28.162Z,1036.14
2017-12-20T08:54:55.531Z,1036.14
2017-12-20T08:56:22.908Z,1036.13
2017-12-20T08:57:50.146Z,1036.11
2017-12-20T08:59:17.195Z,1036.07
2017-12-20T09:00:44.613Z,1036.07
2017-12-20T09:02:11.663Z,1036.05
2017-12-20T09:03:38.862Z,1036.05
2017-12-20T09:05:06.312Z,1036.03
2017-12-20T09:06:33.418Z,1036.01
2017-12-20T09:08:00.823Z,1035.98
2017-12-20T09:09:28.122Z,1035.97
2017-12-20T09:10:55.398Z,1035.97
2017-12-20T09:12:22.638Z,1035.94
2017-12-20T09:13:49.922Z,1035.95
2017-12-20T09:15:17.234Z,1035.95
2017-12-20T09:16:44.463Z,1035.95
2017-12-20T09:18:11.642Z,1035.92
2017-12-20T09:19:38.841Z,1035.89
2017-12-20T09:21:06.346Z,1035.87
2017-12-20T09:22:33.297Z,1035.86
2017-12-20T09:24:00.469Z,1035.84
2017-12-20T09:25:27.765Z,1035.82
2017-12-20T09:26:54.848Z,1035.80
2017-12-20T09:28:22.044Z,1035.78
2017-12-20T09:29:49.419Z,1035.79
2017-12-20T09:31:16.309Z,1035.79
2017-12-20T09:32:43.555Z,1035.83
2017-12-20T09:34:10.941Z,1035.85
2017-12-20T09:35:37.910Z,1035.87
2017-12-20T09:37:05.243Z,1035.88
2017-12-20T09:38:32.535Z,1035.88
2017-12-20T09:39:59.766Z,1035.88
2017-12-20T09:41:26.881Z,1035.89
2017-12-20T09:42:54.138Z,1035.90
2017-12-20T09:44:21.362Z,1035.89
2017-12-20T09:45:48.679Z,1035.88
2017-12-20T09:47:15.823Z,1035.87
2017-12-20T09:48:43.054Z,1035.86
2017-12-20T09:50:10.383Z,1035.86
2017-12-20T09:51:37.361Z,1035.84
2017-12-20T09:53:04.713Z,1035.83
2017-12-20T09:54:32.072Z,1035.83
2017-12-20T09:55:59.705Z,1035.83
2017-12-20T09:57:26.812Z,1035.85
2017-12-20T09:58:54.009Z,1035.84
2017-12-20T10:00:21.125Z,1035.87
2017-12-20T10:01:48.353Z,1035.91
2017-12-20T10:03:15.734Z,1035.94
2017-12-20T10:04:42.924Z,1035.94
2017-12-20T10:06:09.976Z,1035.95
2017-12-20T10:07:37.244Z,1035.93
2017-12-20T10:09:04.367Z,1035.92
2017-12-20T10:10:31.588Z,1035.92
2017-12-20T10:11:59.057Z,1035.93
2017-12-20T10:13:26.254Z,1035.92
2017-12-20T10:14:53.639Z,1035.94
2017-12-20T10:16:20.921Z,1035.93
2017-12-20T10:17:48.206Z,1035.93
2017-12-20T10:19:15.375Z,1035.92
2017-12-20T10:20:42.636Z,1035.90
2017-12-20T10:22:09.935Z,1035.90
2017-12-20T10:23:37.443Z,1035.88
2017-12-20T10:25:04.815Z,1035.84
2017-12-20T10:26:31.879Z,1035.84
2017-12-20T10:27:59.245Z,1035.83
2017-12-20T10:29:26.418Z,1035.85
2017-12-20T10:30:53.799Z,1035.87
2017-12-20T10:32:20.831Z,1035.85
2017-12-20T10:33:48.216Z,1035.83
2017-12-20T10:35:15.338Z,1035.80
2017-12-20T10:36:42.382Z,1035.78
2017-12-20T10:38:09.774Z,1035.76
2017-12-20T10:39:37.073Z,1035.74
2017-12-20T10:41:04.146Z,1035.74
2017-12-20T10:42:31.557Z,1035.74
2017-12-20T10:43:58.750Z,1035.73
2017-12-20T10:45:25.955Z,1035.74
2017-12-20T10:46:53.019Z,1035.74
2017-12-20T10:48:20.137Z,1035.75
2017-12-20T10:49:47.368Z,1035.74
2017-12-20T10:51:14.672Z,1035.68
2017-12-20T10:52:41.904Z,1035.66
2017-12-20T10:54:08.956Z,1035.66
2017-12-20T10:55:36.302Z,1035.66
2017-12-20T10:57:03.728Z,1035.67
2017-12-20T10:58:30.962Z,1035.63
2017-12-20T10:59:58.251Z,1035.62
2017-12-20T11:01:25.658Z,1035.62
2017-12-20T11:02:53.019Z,1035.61
2017-12-20T11:04:20.224Z,1035.61
2017-12-20T11:05:47.518Z,1035.62
2017-12-20T11:07:14.776Z,1035.60
2017-12-20T11:08:41.976Z,1035.58
2017-12-20T11:10:09.181Z,1035.55
2017-12-20T11:11:36.634Z,1035.53
2017-12-20T11:13:03.688Z,1035.54
2017-12-20T11:14:30.910Z,1035.55
2017-12-20T11:15:58.230Z,1035.58
2017-12-20T11:17:25.497Z,1035.60
2017-12-20T11:18:52.649Z,1035.60
2017-12-20T11:20:19.998Z,1035.58
2017-12-20T11:21:47.256Z,1035.59
2017-12-20T11:23:14.576Z,1035.57
2017-12-20T11:24:41.852Z,1035.55
2017-12-20T11:26:08.882Z,1035.53
2017-12-20T11:27:36.004Z,1035.52
2017-12-20T11:29:03.435Z,1035.52
2017-12-20T11:30:30.662Z,1035.46
2017-12-20T11:31:57.940Z,1035.44
2017-12-20T11:33:25.276Z,1035.44
2017-12-20T11:34:52.448Z,1035.43
2017-12-20T11:36:19.829Z,1035.42
2017-12-20T11:37:47.061Z,1035.41
2017-12-20T11:39:14.403Z,1035.40
2017-12-20T11:40:41.664Z,1035.37
2017-12-20T11:42:08.971Z,1035.35
2017-12-20T11:43:36.315Z,1035.31
2017-12-20T11:45:03.628Z,1035.29
2017-12-20T11:46:31.010Z,1035.29
2017-12-20T11:47:58.313Z,1035.27
2017-12-20T11:49:25.728Z,1035.26
2017-12-20T11:50:52.969Z,1035.25
2017-12-20T11:52:20.220Z,1035.25
2017-12-20T11:53:47.510Z,1035.26
2017-12-20T11:55:14.660Z,1035.29
2017-12-20T11:56:41.843Z,1035.28
2017-12-20T11:58:09.171Z,1035.28
2017-12-20T11:59:36.189Z,1035.30
2017-12-20T12:01:03.422Z,1035.31
2017-12-20T12:02:30.675Z,1035.30
2017-12-20T12:03:57.923Z,1035.29
2017-12-20T12:05:25.232Z,1035.30
2017-12-20T12:06:52.605Z,1035.28
2017-12-20T12:08:19.893Z,1035.24
2017-12-20T12:09:47.205Z,1035.21
2017-12-20T12:11:14.219Z,1035.19
2017-12-20T12:12:41.331Z,1035.14
2017-12-20T12:14:08.661Z,1035.12
2017-12-20T12:15:35.908Z,1035.12
2017-12-20T12:17:03.190Z,1035.12
2017-12-20T12:18:30.469Z,1035.12
2017-12-20T12:19:57.864Z,1035.11
2017-12-20T12:21:24.936Z,1035.14
2017-12-20T12:22:52.303Z,1035.14
2017-12-20T12:24:19.750Z,1035.13
2017-12-20T12:25:46.882Z,1035.11
2017-12-20T12:27:14.188Z,1035.11
2017-12-20T12:28:41.415Z,1035.13
2017-12-20T12:30:08.594Z,1035.08
2017-12-20T12:31:35.958Z,1035.05
2017-12-20T12:33:03.272Z,1035.03
2017-12-20T12:34:30.672Z,1035.04
2017-12-20T12:35:57.921Z,1035.05
2017-12-20T12:37:25.219Z,1035.04
2017-12-20T12:38:52.563Z,1035.07
2017-12-20T12:40:19.832Z,1035.04
2017-12-20T12:41:46.912Z,1035.00
2017-12-20T12:43:14.134Z,1034.97
2017-12-20T12:44:41.477Z,1034.92
2017-12-20T12:46:08.620Z,1034.91
2017-12-20T12:47:35.731Z,1034.87
2017-12-20T12:49:03.246Z,1034.84
2017-12-20T12:50:30.519Z,1034.85
2017-12-20T12:51:57.884Z,1034.80
2017-12-20T12:53:25.092Z,1034.78
2017-12-20T12:54:52.439Z,1034.81
2017-12-20T12:56:19.634Z,1034.80
2017-12-20T12:57:46.876Z,1034.77
2017-12-20T12:59:14.187Z,1034.72
2017-12-20T13:00:41.352Z,1034.69
2017-12-20T13:02:08.610Z,1034.68
2017-12-20T13:03:35.827Z,1034.67
2017-12-20T13:05:03.086Z,1034.67
2017-12-20T13:06:30.221Z,1034.65
2017-12-20T13:07:57.542Z,1034.63
2017-12-20T13:09:24.944Z,1034.59
2017-12-20T13:10:52.334Z,1034.56
2017-12-20T13:12:19.628Z,1034.55
2017-12-20T13:13:46.790Z,1034.57
2017-12-20T13:15:14.104Z,1034.55
2017-12-20T13:16:41.411Z,1034.56
2017-12-20T13:18:08.681Z,1034.56
2017-12-20T13:19:36.004Z,1034.56
2017-12-20T13:21:03.422Z,1034.57
2017-12-20T13:22:30.650Z,1034.58
2017-12-20T13:23:58.039Z,1034.56
2017-12-20T13:25:25.359Z,1034.54
2017-12-20T13:26:52.507Z,1034.54
2017-12-20T13:28:19.888Z,1034.54
2017-12-20T13:29:47.141Z,1034.52
2017-12-20T13:31:14.200Z,1034.51
2017-12-20T13:32:41.540Z,1034.55
2017-12-20T13:34:08.861Z,1034.59
2017-12-20T13:35:36.265Z,1034.63
2017-12-20T13:37:03.770Z,1034.61
2017-12-20T13:38:30.978Z,1034.62
2017-12-20T13:39:58.242Z,1034.61
2017-12-20T13:41:25.376Z,1034.58
2017-12-20T13:42:52.620Z,1034.58
2017-12-20T13:44:19.686Z,1034.59
2017-12-20T13:45:46.998Z,1034.59
2017-12-20T13:47:14.278Z,1034.61
2017-12-20T13:48:41.385Z,1034.59
2017-12-20T13:50:08.567Z,1034.57
2017-12-20T13:51:35.841Z,1034.60
2017-12-20T13:53:03.143Z,1034.59
2017-12-20T13:54:30.660Z,1034.59
2017-12-20T13:55:58.079Z,1034.61
2017-12-20T13:57:25.433Z,1034.64
2017-12-20T13:58:52.588Z,1034.63
2017-12-20T14:00:19.826Z,1034.65
2017-12-20T14:01:47.134Z,1034.65
2017-12-20T14:03:14.319Z,1034.60
2017-12-20T14:04:41.539Z,1034.58
2017-12-20T14:06:08.996Z,1034.56
2017-12-20T14:07:36.180Z,1034.55
2017-12-20T14:09:03.490Z,1034.54
2017-12-20T14:10:30.975Z,1034.54
2017-12-20T14:11:58.274Z,1034.55
2017-12-20T14:13:25.428Z,1034.54
2017-12-20T14:14:52.796Z,1034.56
2017-12-20T14:16:20.166Z,1034.58
2017-12-20T14:17:47.296Z,1034.59
2017-12-20T14:19:14.617Z,1034.57
2017-12-20T14:20:41.859Z,1034.56
2017-12-20T14:22:08.887Z,1034.55
2017-12-20T14:23:36.138Z,1034.55
2017-12-20T14:25:03.526Z,1034.52
2017-12-20T14:26:30.796Z,1034.51
2017-12-20T14:27:58.072Z,1034.49
2017-12-20T14:29:25.369Z,1034.45
2017-12-20T14:30:52.606Z,1034.44
2017-12-20T14:32:19.851Z,1034.42
2017-12-20T14:33:47.145Z,1034.42
2017-12-20T14:35:14.487Z,1034.46
2017-12-20T14:36:41.677Z,1034.44
2017-12-20T14:38:08.802Z,1034.45
2017-12-20T14:39:35.822Z,1034.44
2017-12-20T14:41:03.227Z,1034.44
2017-12-20T14:42:30.421Z,1034.48
2017-12-20T14:43:57.522Z,1034.53
2017-12-20T14:45:24.673Z,1034.51
2017-12-20T14:46:51.753Z,1034.50
2017-12-20T14:48:19.114Z,1034.49
2017-12-20T14:49:46.034Z,1034.47
2017-12-20T14:51:13.330Z,1034.48
2017-12-20T14:52:40.632Z,1034.49
2017-12-20T14:54:07.793Z,1034.49
2017-12-20T14:55:35.218Z,1034.48
2017-12-20T14:57:02.301Z,1034.46
2017-12-20T14:58:29.728Z,1034.48
2017-12-20T14:59:57.052Z,1034.52
2017-12-20T15:01:24.488Z,1034.52
2017-12-20T15:02:51.669Z,1034.53
2017-12-20T15:04:19.003Z,1034.52
2017-12-20T15:05:46.290Z,1034.54
2017-12-20T15:07:13.512Z,1034.54
2017-12-20T15:08:40.923Z,1034.49
2017-12-20T15:10:08.003Z,1034.44
2017-12-20T15:11:35.283Z,1034.44
2017-12-20T15:13:02.711Z,1034.39
2017-12-20T15:14:30.101Z,1034.40
2017-12-20T15:15:57.310Z,1034.39
2017-12-20T15:17:24.696Z,1034.40
2017-12-20T15:18:51.866Z,1034.41
2017-12-20T15:20:18.856Z,1034.42
2017-12-20T15:21:46.139Z,1034.42
2017-12-20T15:23:13.405Z,1034.43
2017-12-20T15:24:40.681Z,1034.44
2017-12-20T15:26:07.980Z,1034.42
2017-12-20T15:27:35.261Z,1034.44
2017-12-20T15:29:02.517Z,1034.43
2017-12-20T15:30:29.822Z,1034.41
2017-12-20T15:31:57.025Z,1034.40
2017-12-20T15:33:24.236Z,1034.40
2017-12-20T15:34:51.714Z,1034.37
2017-12-20T15:36:18.825Z,1034.37
2017-12-20T15:37:45.897Z,1034.37
2017-12-20T15:39:13.006Z,1034.37
2017-12-20T15:40:40.263Z,1034.32
2017-12-20T15:42:07.567Z,1034.30
2017-12-20T15:43:34.812Z,1034.33
2017-12-20T15:45:02.290Z,1034.35
2017-12-20T15:46:29.715Z,1034.37
2017-12-20T15:47:56.985Z,1034.38
2017-12-20T15:49:24.139Z,1034.37
2017-12-20T15:50:51.552Z,1034.39
2017-12-20T15:52:18.935Z,1034.42
2017-12-20T15:53:46.058Z,1034.43
2017-12-20T15:55:13.209Z,1034.49
2017-12-20T15:56:40.364Z,1034.52
2017-12-20T15:58:07.436Z,1034.50
2017-12-20T15:59:34.706Z,1034.52
2017-12-20T16:01:01.986Z,1034.57
2017-12-20T16:02:29.225Z,1034.54
2017-12-20T16:03:56.327Z,1034.51
2017-12-20T16:05:23.621Z,1034.49
2017-12-20T16:06:50.805Z,1034.49
2017-12-20T16:08:18.078Z,1034.48
2017-12-20T16:09:45.379Z,1034.45
2017-12-20T16:11:12.520Z,1034.45
2017-12-20T16:12:39.837Z,1034.46
2017-12-20T16:14:07.060Z,1034.50
2017-12-20T16:15:34.080Z,1034.48
2017-12-20T16:17:01.356Z,1034.47
2017-12-20T16:18:28.542Z,1034.47
2017-12-20T16:19:55.660Z,1034.46
2017-12-20T16:21:22.913Z,1034.44
2017-12-20T16:22:50.345Z,1034.43
2017-12-20T16:24:17.623Z,1034.40
2017-12-20T16:25:44.870Z,1034.41
2017-12-20T16:27:12.261Z,1034.38
2017-12-20T16:28:39.599Z,1034.37
2017-12-20T16:30:06.933Z,1034.38
2017-12-20T16:31:34.134Z,1034.40
2017-12-20T16:33:01.524Z,1034.43
2017-12-20T16:34:28.722Z,1034.44
2017-12-20T16:35:56.126Z,1034.45
2017-12-20T16:37:23.504Z,1034.42
2017-12-20T16:38:50.932Z,1034.43
2017-12-20T16:40:18.179Z,1034.39
2017-12-20T16:41:45.310Z,1034.39
2017-12-20T16:43:12.749Z,1034.37
2017-12-20T16:44:39.973Z,1034.34
2017-12-20T16:46:07.331Z,1034.37
2017-12-20T16:47:34.479Z,1034.38
2017-12-20T16:49:01.899Z,1034.40
2017-12-20T16:50:29.308Z,1034.44
2017-12-20T16:51:56.472Z,1034.44
2017-12-20T16:53:23.646Z,1034.43
2017-12-20T16:54:50.954Z,1034.45
2017-12-20T16:56:18.151Z,1034.51
2017-12-20T16:57:45.332Z,1034.49
2017-12-20T16:59:12.318Z,1034.50
2017-12-20T17:00:39.622Z,1034.53
2017-12-20T17:02:07.051Z,1034.55
2017-12-20T17:03:33.969Z,1034.51
2017-12-20T17:05:01.299Z,1034.51
2017-12-20T17:06:28.646Z,1034.50
2017-12-20T17:07:55.752Z,1034.50
2017-12-20T17:09:23.084Z,1034.51
2017-12-20T17:10:50.086Z,1034.50
2017-12-20T17:12:17.481Z,1034.52
2017-12-20T17:13:44.514Z,1034.51
2017-12-20T17:15:11.928Z,1034.50
2017-12-20T17:16:38.896Z,1034.49
2017-12-20T17:18:06.216Z,1034.48
2017-12-20T17:19:33.523Z,1034.46
2017-12-20T17:21:00.574Z,1034.43
2017-12-20T17:22:27.676Z,1034.41
2017-12-20T17:23:54.961Z,1034.38
2017-12-20T17:25:22.206Z,1034.39
2017-12-20T17:26:49.455Z,1034.40
2017-12-20T17:28:16.623Z,1034.38
2017-12-20T17:29:43.964Z,1034.38
2017-12-20T17:31:11.311Z,1034.36
2017-12-20T17:32:38.294Z,1034.35
2017-12-20T17:34:05.583Z,1034.33
2017-12-20T17:35:32.669Z,1034.34
2017-12-20T17:36:59.834Z,1034.33